createdAt,value
2022-12-11T00:00:29.156Z,0.50
2022-12-11T00:02:56.818Z,0.50
2022-12-11T00:05:25.171Z,0.50
2022-12-11T00:07:52.576Z,0.40
2022-12-11T00:10:20.130Z,0.40
2022-12-11T00:12:47.446Z,0.40
2022-12-11T00:15:14.856Z,0.40
2022-12-11T00:17:42.280Z,0.40
2022-12-11T00:20:09.997Z,0.40
2022-12-11T00:22:37.421Z,0.40
2022-12-11T00:25:05.316Z,0.40
2022-12-11T00:27:33.015Z,0.40
2022-12-11T00:30:00.513Z,0.50
2022-12-11T00:32:28.750Z,0.40
2022-12-11T00:34:56.144Z,0.50
2022-12-11T00:37:23.804Z,0.50
2022-12-11T00:39:51.202Z,0.50
2022-12-11T00:42:18.541Z,0.50
2022-12-11T00:44:45.934Z,0.50
2022-12-11T00:47:13.262Z,0.50
2022-12-11T00:49:45.123Z,0.50
2022-12-11T00:52:17.851Z,0.50
2022-12-11T00:54:45.518Z,0.40
2022-12-11T00:57:12.894Z,0.40
2022-12-11T00:59:40.560Z,0.40
2022-12-11T01:02:08.041Z,0.40
2022-12-11T01:04:37.081Z,0.40
2022-12-11T01:07:04.618Z,0.40
2022-12-11T01:09:50.443Z,0.40
2022-12-11T01:12:17.793Z,0.40
2022-12-11T01:14:45.178Z,0.40
2022-12-11T01:17:12.535Z,0.40
2022-12-11T01:19:40.044Z,0.40
2022-12-11T01:22:07.418Z,0.40
2022-12-11T01:24:34.993Z,0.40
2022-12-11T01:27:02.509Z,0.40
2022-12-11T01:29:30.285Z,0.40
2022-12-11T01:31:57.594Z,0.40
2022-12-11T01:34:24.989Z,0.40
2022-12-11T01:36:52.991Z,0.40
2022-12-11T01:39:20.326Z,0.40
2022-12-11T01:41:47.628Z,0.40
2022-12-11T01:44:14.913Z,0.40
2022-12-11T01:46:44.093Z,0.40
2022-12-11T01:49:14.166Z,0.30
2022-12-11T01:51:50.529Z,0.30
2022-12-11T01:54:21.261Z,0.30
2022-12-11T01:56:51.768Z,0.30
2022-12-11T01:59:23.324Z,0.30
2022-12-11T02:02:06.301Z,0.30
2022-12-11T02:04:35.823Z,0.30
2022-12-11T02:07:04.012Z,0.30
2022-12-11T02:09:35.048Z,0.20
2022-12-11T02:12:19.127Z,0.30
2022-12-11T02:15:11.412Z,0.30
2022-12-11T02:17:41.267Z,0.30
2022-12-11T02:20:33.334Z,0.30
2022-12-11T02:23:30.006Z,0.30
2022-12-11T02:26:06.162Z,0.40
2022-12-11T02:28:34.981Z,0.40
2022-12-11T02:31:27.218Z,0.30
2022-12-11T02:34:13.312Z,0.30
2022-12-11T02:36:44.798Z,0.30
2022-12-11T02:39:15.521Z,0.40
2022-12-11T02:41:47.999Z,0.30
2022-12-11T02:44:19.736Z,0.20
2022-12-11T02:46:47.207Z,0.20
2022-12-11T02:49:15.871Z,0.20
2022-12-11T02:51:44.310Z,0.20
2022-12-11T02:54:20.828Z,0.20
2022-12-11T02:57:01.862Z,0.20
2022-12-11T02:59:36.939Z,0.20
2022-12-11T03:02:04.855Z,0.10
2022-12-11T03:04:33.685Z,0.10
2022-12-11T03:07:12.178Z,0.20
2022-12-11T03:09:45.079Z,0.10
2022-12-11T03:12:16.036Z,0.10
2022-12-11T03:14:44.202Z,0.10
2022-12-11T03:17:25.437Z,0.00
2022-12-11T03:19:52.657Z,0.00
2022-12-11T03:22:33.930Z,0.00
2022-12-11T03:25:06.491Z,-0.10
2022-12-11T03:27:42.338Z,-0.20
2022-12-11T03:30:19.362Z,-0.20
2022-12-11T03:33:07.488Z,-0.20
2022-12-11T03:35:44.941Z,-0.20
2022-12-11T03:38:23.036Z,-0.30
2022-12-11T03:40:54.138Z,-0.30
2022-12-11T03:43:22.074Z,-0.40
2022-12-11T03:45:50.825Z,-0.30
2022-12-11T03:48:19.822Z,-0.40
2022-12-11T03:50:49.758Z,-0.40
2022-12-11T03:53:19.063Z,-0.50
2022-12-11T03:55:48.044Z,-0.40
2022-12-11T03:58:15.544Z,-0.40
2022-12-11T04:00:43.144Z,-0.40
2022-12-11T04:03:14.226Z,-0.50
2022-12-11T04:05:47.658Z,-0.50
2022-12-11T04:08:16.024Z,-0.50
2022-12-11T04:10:43.816Z,-0.60
2022-12-11T04:13:11.379Z,-0.60
2022-12-11T04:15:39.585Z,-0.60
2022-12-11T04:18:26.907Z,-0.60
2022-12-11T04:21:14.130Z,-0.60
2022-12-11T04:23:59.871Z,-0.70
2022-12-11T04:26:27.764Z,-0.60
2022-12-11T04:28:55.104Z,-0.60
2022-12-11T04:31:22.860Z,-0.70
2022-12-11T04:33:50.330Z,-0.60
2022-12-11T04:36:17.685Z,-0.60
2022-12-11T04:38:45.025Z,-0.60
2022-12-11T04:41:13.928Z,-0.60
2022-12-11T04:43:45.155Z,-0.60
2022-12-11T04:46:16.367Z,-0.70
2022-12-11T04:48:44.292Z,-0.60
2022-12-11T04:51:11.921Z,-0.60
2022-12-11T04:53:39.304Z,-0.60
2022-12-11T04:56:12.376Z,-0.60
2022-12-11T04:58:41.133Z,-0.60
2022-12-11T05:01:17.851Z,-0.50
2022-12-11T05:03:45.950Z,-0.60
2022-12-11T05:06:13.905Z,-0.60
2022-12-11T05:08:42.977Z,-0.70
2022-12-11T05:11:13.644Z,-0.60
2022-12-11T05:13:41.512Z,-0.60
2022-12-11T05:16:11.830Z,-0.70
2022-12-11T05:18:39.249Z,-0.60
2022-12-11T05:21:12.622Z,-0.60
2022-12-11T05:23:41.006Z,-0.60
2022-12-11T05:26:12.754Z,-0.70
2022-12-11T05:28:40.650Z,-0.60
2022-12-11T05:31:17.911Z,-0.70
2022-12-11T05:33:47.022Z,-0.70
2022-12-11T05:36:20.968Z,-0.60
2022-12-11T05:38:49.002Z,-0.60
2022-12-11T05:41:18.957Z,-0.60
2022-12-11T05:43:46.375Z,-0.60
2022-12-11T05:46:18.146Z,-0.60
2022-12-11T05:48:47.472Z,-0.70
2022-12-11T05:51:16.347Z,-0.60
2022-12-11T05:53:44.935Z,-0.70
2022-12-11T05:56:18.104Z,-0.60
2022-12-11T05:58:46.556Z,-0.60
2022-12-11T06:01:22.560Z,-0.70
2022-12-11T06:03:50.275Z,-0.70
2022-12-11T06:06:17.630Z,-0.70
2022-12-11T06:08:45.039Z,-0.70
2022-12-11T06:11:15.642Z,-0.70
2022-12-11T06:13:44.689Z,-0.70
2022-12-11T06:16:12.471Z,-0.70
2022-12-11T06:18:42.426Z,-0.70
2022-12-11T06:21:27.212Z,-0.70
2022-12-11T06:23:56.290Z,-0.60
2022-12-11T06:26:24.975Z,-0.70
2022-12-11T06:28:52.740Z,-0.70
2022-12-11T06:31:20.849Z,-0.70
2022-12-11T06:33:48.341Z,-0.70
2022-12-11T06:36:19.025Z,-0.70
2022-12-11T06:38:46.559Z,-0.70
2022-12-11T06:41:14.692Z,-0.70
2022-12-11T06:43:43.059Z,-0.70
2022-12-11T06:46:13.067Z,-0.70
2022-12-11T06:48:42.301Z,-0.70
2022-12-11T06:51:12.887Z,-0.70
2022-12-11T06:53:40.451Z,-0.70
2022-12-11T06:56:13.468Z,-0.60
2022-12-11T06:58:42.113Z,-0.80
2022-12-11T07:01:21.824Z,-0.70
2022-12-11T07:03:49.963Z,-0.70
2022-12-11T07:06:17.390Z,-0.80
2022-12-11T07:08:44.829Z,-0.90
2022-12-11T07:11:14.951Z,-0.90
2022-12-11T07:13:43.410Z,-0.80
2022-12-11T07:16:12.815Z,-0.80
2022-12-11T07:18:41.988Z,-0.80
2022-12-11T07:21:11.767Z,-0.80
2022-12-11T07:23:40.133Z,-0.80
2022-12-11T07:26:09.600Z,-1.00
2022-12-11T07:28:37.261Z,-1.10
2022-12-11T07:31:16.582Z,-1.10
2022-12-11T07:33:44.435Z,-1.00
2022-12-11T07:36:14.530Z,-1.00
2022-12-11T07:38:42.072Z,-0.80
2022-12-11T07:41:12.434Z,-0.80
2022-12-11T07:43:40.616Z,-0.70
2022-12-11T07:46:12.499Z,-0.70
2022-12-11T07:48:41.744Z,-0.60
2022-12-11T07:51:15.159Z,-0.60
2022-12-11T07:53:44.068Z,-0.70
2022-12-11T07:56:11.791Z,-0.70
2022-12-11T07:58:39.318Z,-0.80
2022-12-11T08:01:11.731Z,-0.90
2022-12-11T08:03:39.692Z,-0.90
2022-12-11T08:06:07.206Z,-0.80
2022-12-11T08:08:34.978Z,-0.80
2022-12-11T08:11:04.004Z,-0.80
2022-12-11T08:13:32.862Z,-0.80
2022-12-11T08:16:04.521Z,-0.70
2022-12-11T08:18:33.855Z,-0.70
2022-12-11T08:21:12.827Z,-0.70
2022-12-11T08:23:41.526Z,-0.70
2022-12-11T08:26:12.842Z,-0.70
2022-12-11T08:28:40.318Z,-0.70
2022-12-11T08:31:09.641Z,-0.80
2022-12-11T08:33:38.122Z,-0.80
2022-12-11T08:36:07.451Z,-0.60
2022-12-11T08:38:35.682Z,-0.70
2022-12-11T08:41:17.061Z,-0.70
2022-12-11T08:43:45.097Z,-0.60
2022-12-11T08:46:13.218Z,-0.70
2022-12-11T08:48:42.547Z,-0.70
2022-12-11T08:51:13.514Z,-0.70
2022-12-11T08:53:41.429Z,-0.70
2022-12-11T08:56:15.054Z,-0.70
2022-12-11T08:58:43.625Z,-0.70
2022-12-11T09:01:14.251Z,-0.60
2022-12-11T09:03:41.956Z,-0.70
2022-12-11T09:06:12.203Z,-0.70
2022-12-11T09:08:40.338Z,-0.70
2022-12-11T09:11:13.341Z,-0.70
2022-12-11T09:13:41.331Z,-0.80
2022-12-11T09:16:11.492Z,-0.70
2022-12-11T09:18:39.752Z,-0.70
2022-12-11T09:21:10.027Z,-0.70
2022-12-11T09:23:37.777Z,-0.70
2022-12-11T09:26:06.775Z,-0.60
2022-12-11T09:28:34.293Z,-0.60
2022-12-11T09:31:01.634Z,-0.60
2022-12-11T09:33:29.021Z,-0.60
2022-12-11T09:36:00.340Z,-0.60
2022-12-11T09:38:27.816Z,-0.60
2022-12-11T09:40:55.771Z,-0.60
2022-12-11T09:43:25.922Z,-0.60
2022-12-11T09:45:55.234Z,-0.50
2022-12-11T09:48:26.079Z,-0.60
2022-12-11T09:50:55.080Z,-0.50
2022-12-11T09:53:33.931Z,-0.50
2022-12-11T09:56:22.108Z,-0.50
2022-12-11T09:59:08.315Z,-0.40
2022-12-11T10:02:01.803Z,-0.40
2022-12-11T10:04:53.140Z,-0.40
2022-12-11T10:07:30.606Z,-0.40
2022-12-11T10:10:12.494Z,-0.40
2022-12-11T10:13:02.701Z,-0.40
2022-12-11T10:15:49.239Z,-0.40
2022-12-11T10:18:23.032Z,-0.40
2022-12-11T10:20:52.841Z,-0.40
2022-12-11T10:23:29.338Z,-0.40
2022-12-11T10:26:18.894Z,-0.30
2022-12-11T10:28:46.294Z,-0.30
2022-12-11T10:31:39.908Z,-0.30
2022-12-11T10:34:15.004Z,-0.20
2022-12-11T10:36:43.545Z,-0.20
2022-12-11T10:39:21.787Z,-0.20
2022-12-11T10:41:53.851Z,-0.10
2022-12-11T10:44:22.434Z,0.00
2022-12-11T10:47:06.176Z,0.00
2022-12-11T10:49:35.935Z,0.10
2022-12-11T10:52:27.400Z,0.30
2022-12-11T10:55:19.066Z,0.30
2022-12-11T10:58:03.671Z,0.30
2022-12-11T11:00:36.980Z,0.30
2022-12-11T11:03:07.836Z,0.30
2022-12-11T11:05:37.131Z,0.30
2022-12-11T11:08:15.951Z,0.30
2022-12-11T11:10:55.022Z,0.30
2022-12-11T11:13:32.408Z,0.40
2022-12-11T11:16:06.777Z,0.50
2022-12-11T11:18:34.944Z,0.40
2022-12-11T11:21:03.259Z,0.40
2022-12-11T11:23:30.794Z,0.30
2022-12-11T11:26:01.653Z,0.40
2022-12-11T11:28:38.030Z,0.30
2022-12-11T11:31:12.355Z,0.40
2022-12-11T11:34:00.975Z,0.40
2022-12-11T11:36:31.031Z,0.40
2022-12-11T11:39:26.306Z,0.40
2022-12-11T11:42:03.321Z,0.50
2022-12-11T11:44:39.004Z,0.50
2022-12-11T11:47:22.012Z,0.50
2022-12-11T11:50:25.798Z,0.50
2022-12-11T11:53:00.326Z,0.50
2022-12-11T11:55:36.824Z,0.50
2022-12-11T11:58:27.725Z,0.60
2022-12-11T12:00:55.705Z,0.60
2022-12-11T12:03:25.306Z,0.60
2022-12-11T12:06:30.065Z,0.60
2022-12-11T12:09:03.213Z,0.60
2022-12-11T12:11:57.730Z,0.60
2022-12-11T12:14:54.499Z,0.60
2022-12-11T12:17:21.894Z,0.60
2022-12-11T12:19:55.069Z,0.70
2022-12-11T12:22:33.689Z,0.60
2022-12-11T12:25:22.156Z,0.60
2022-12-11T12:28:19.570Z,0.50
2022-12-11T12:31:09.955Z,0.60
2022-12-11T12:34:01.052Z,0.70
2022-12-11T12:36:33.879Z,0.90
2022-12-11T12:39:05.807Z,1.00
2022-12-11T12:41:50.960Z,0.80
2022-12-11T12:44:20.694Z,0.80
2022-12-11T12:47:03.155Z,0.80
2022-12-11T12:49:38.529Z,0.90
2022-12-11T12:52:12.344Z,0.90
2022-12-11T12:54:42.555Z,0.90
2022-12-11T12:57:09.993Z,0.90
2022-12-11T12:59:37.321Z,0.90
2022-12-11T13:02:06.380Z,1.00
2022-12-11T13:04:58.639Z,1.10
2022-12-11T13:07:30.331Z,1.10
2022-12-11T13:10:21.804Z,1.20
2022-12-11T13:12:49.134Z,1.20
2022-12-11T13:15:26.904Z,1.20
2022-12-11T13:17:55.470Z,1.10
2022-12-11T13:20:25.453Z,1.10
2022-12-11T13:23:10.044Z,1.00
2022-12-11T13:26:06.564Z,0.90
2022-12-11T13:28:39.733Z,0.90
2022-12-11T13:31:16.254Z,0.90
2022-12-11T13:33:49.767Z,1.10
2022-12-11T13:36:24.279Z,1.10
2022-12-11T13:39:03.487Z,1.10
2022-12-11T13:41:35.219Z,1.10
2022-12-11T13:44:04.463Z,1.10
2022-12-11T13:46:36.977Z,1.20
2022-12-11T13:49:07.062Z,1.30
2022-12-11T13:51:36.997Z,1.30
2022-12-11T13:54:17.303Z,1.20
2022-12-11T13:57:06.624Z,1.20
2022-12-11T13:59:36.488Z,1.10
2022-12-11T14:02:23.704Z,1.20
2022-12-11T14:04:56.753Z,1.20
2022-12-11T14:07:28.230Z,1.20
2022-12-11T14:10:05.727Z,1.20
2022-12-11T14:12:33.439Z,1.20
2022-12-11T14:15:02.805Z,1.20
2022-12-11T14:17:35.402Z,1.20
2022-12-11T14:20:08.420Z,1.20
2022-12-11T14:22:35.950Z,1.30
2022-12-11T14:25:24.921Z,1.30
2022-12-11T14:27:54.948Z,1.30
2022-12-11T14:30:28.211Z,1.30
2022-12-11T14:33:04.933Z,1.20
2022-12-11T14:35:38.724Z,1.20
2022-12-11T14:38:26.116Z,1.30
2022-12-11T14:40:58.808Z,1.30
2022-12-11T14:43:36.521Z,1.30
2022-12-11T14:46:22.021Z,1.40
2022-12-11T14:49:01.521Z,1.40
2022-12-11T14:51:38.442Z,1.40
2022-12-11T14:54:07.674Z,1.40
2022-12-11T14:56:35.186Z,1.40
2022-12-11T14:59:27.011Z,1.40
2022-12-11T15:02:01.398Z,1.40
2022-12-11T15:04:31.850Z,1.40
2022-12-11T15:06:59.650Z,1.30
2022-12-11T15:09:41.501Z,1.30
2022-12-11T15:12:15.668Z,1.40
2022-12-11T15:14:53.754Z,1.30
2022-12-11T15:17:22.905Z,1.40
2022-12-11T15:19:57.024Z,1.30
2022-12-11T15:22:30.042Z,1.30
2022-12-11T15:24:58.158Z,1.30
2022-12-11T15:27:36.824Z,1.30
2022-12-11T15:30:26.610Z,1.30
2022-12-11T15:33:12.000Z,1.30
2022-12-11T15:35:40.210Z,1.30
2022-12-11T15:38:27.695Z,1.30
2022-12-11T15:40:55.562Z,1.30
2022-12-11T15:43:23.369Z,1.30
2022-12-11T15:45:50.764Z,1.30
2022-12-11T15:48:18.105Z,1.30
2022-12-11T15:50:45.486Z,1.30
2022-12-11T15:53:12.822Z,1.30
2022-12-11T15:55:40.409Z,1.30
2022-12-11T15:58:13.480Z,1.30
2022-12-11T16:00:40.846Z,1.40
2022-12-11T16:03:13.784Z,1.40
2022-12-11T16:05:41.991Z,1.40
2022-12-11T16:08:15.225Z,1.30
2022-12-11T16:10:44.328Z,1.30
2022-12-11T16:13:12.893Z,1.30
2022-12-11T16:15:43.815Z,1.30
2022-12-11T16:18:17.461Z,1.30
2022-12-11T16:20:46.290Z,1.50
2022-12-11T16:23:14.824Z,1.50
2022-12-11T16:25:43.245Z,1.50
2022-12-11T16:28:13.881Z,1.50
2022-12-11T16:30:42.234Z,1.40
2022-12-11T16:33:12.956Z,1.40
2022-12-11T16:35:42.780Z,1.50
2022-12-11T16:38:11.390Z,1.40
2022-12-11T16:40:41.431Z,1.50
2022-12-11T16:43:08.934Z,1.60
2022-12-11T16:45:36.498Z,1.60
2022-12-11T16:48:04.579Z,1.60
2022-12-11T16:50:32.464Z,1.60
2022-12-11T16:52:59.808Z,1.60
2022-12-11T16:55:27.207Z,1.50
2022-12-11T16:57:55.138Z,1.50
2022-12-11T17:00:22.892Z,1.50
2022-12-11T17:02:50.850Z,1.50
2022-12-11T17:05:18.427Z,1.60
2022-12-11T17:07:45.812Z,1.60
2022-12-11T17:10:13.366Z,1.70
2022-12-11T17:12:40.759Z,1.70
2022-12-11T17:15:08.670Z,1.70
2022-12-11T17:17:36.213Z,1.70
2022-12-11T17:20:04.173Z,1.60
2022-12-11T17:22:31.639Z,1.60
2022-12-11T17:24:58.984Z,1.60
2022-12-11T17:27:26.578Z,1.60
2022-12-11T17:29:53.968Z,1.60
2022-12-11T17:32:21.339Z,1.70
2022-12-11T17:34:50.469Z,1.80
2022-12-11T17:37:18.621Z,1.80
2022-12-11T17:39:47.519Z,1.80
2022-12-11T17:42:14.924Z,1.70
2022-12-11T17:44:42.439Z,1.70
2022-12-11T17:47:11.966Z,1.80
2022-12-11T17:49:40.944Z,1.70
2022-12-11T17:52:08.573Z,1.70
2022-12-11T17:54:35.963Z,1.70
2022-12-11T17:57:03.510Z,1.80
2022-12-11T17:59:31.471Z,1.80
2022-12-11T18:01:59.101Z,1.80
2022-12-11T18:04:26.498Z,1.70
2022-12-11T18:06:53.867Z,1.70
2022-12-11T18:09:21.221Z,1.60
2022-12-11T18:11:48.572Z,1.70
2022-12-11T18:14:17.589Z,1.60
2022-12-11T18:16:45.215Z,1.60
2022-12-11T18:19:12.733Z,1.70
2022-12-11T18:21:43.864Z,1.80
2022-12-11T18:24:11.485Z,1.80
2022-12-11T18:26:39.108Z,1.70
2022-12-11T18:29:06.826Z,1.60
2022-12-11T18:31:37.561Z,1.50
2022-12-11T18:34:10.469Z,1.50
2022-12-11T18:36:37.911Z,1.50
2022-12-11T18:39:05.252Z,1.50
2022-12-11T18:41:32.605Z,1.40
2022-12-11T18:44:04.021Z,1.50
2022-12-11T18:46:35.453Z,1.50
2022-12-11T18:49:02.967Z,1.50
2022-12-11T18:51:31.952Z,1.40
2022-12-11T18:53:59.262Z,1.30
2022-12-11T18:56:26.603Z,1.30
2022-12-11T18:58:53.915Z,1.30
2022-12-11T19:01:26.611Z,1.30
2022-12-11T19:04:02.359Z,1.30
2022-12-11T19:06:33.174Z,1.30
2022-12-11T19:09:01.095Z,1.40
2022-12-11T19:11:30.939Z,1.50
2022-12-11T19:13:58.374Z,1.50
2022-12-11T19:16:35.017Z,1.50
2022-12-11T19:19:06.870Z,1.40
2022-12-11T19:21:36.654Z,1.30
2022-12-11T19:24:06.172Z,1.30
2022-12-11T19:26:34.155Z,1.20
2022-12-11T19:29:01.547Z,1.20
2022-12-11T19:31:31.335Z,1.30
2022-12-11T19:33:59.565Z,1.30
2022-12-11T19:36:28.358Z,1.30
2022-12-11T19:39:01.446Z,1.30
2022-12-11T19:41:31.138Z,1.20
2022-12-11T19:43:59.527Z,1.10
2022-12-11T19:46:27.812Z,1.10
2022-12-11T19:48:57.106Z,1.10
2022-12-11T19:51:31.267Z,1.10
2022-12-11T19:53:59.112Z,1.10
2022-12-11T19:56:26.502Z,1.20
2022-12-11T19:58:53.884Z,1.20
2022-12-11T20:01:25.867Z,1.10
2022-12-11T20:03:54.444Z,1.00
2022-12-11T20:06:22.325Z,0.90
2022-12-11T20:08:50.065Z,0.80
2022-12-11T20:11:19.025Z,0.80
2022-12-11T20:13:47.733Z,0.80
2022-12-11T20:16:16.872Z,0.90
2022-12-11T20:18:45.048Z,0.90
2022-12-11T20:21:15.784Z,0.90
2022-12-11T20:23:43.736Z,0.80
2022-12-11T20:26:14.288Z,0.80
2022-12-11T20:33:12.368Z,0.80
2022-12-11T20:35:40.739Z,0.70
2022-12-11T20:38:08.179Z,0.80
2022-12-11T20:40:35.856Z,0.70
2022-12-11T20:43:03.176Z,0.70
2022-12-11T20:45:30.659Z,0.70
2022-12-11T20:47:58.067Z,0.70
2022-12-11T20:50:25.464Z,0.60
2022-12-11T20:52:52.777Z,0.70
2022-12-11T20:55:20.303Z,0.60
2022-12-11T20:57:47.613Z,0.60
2022-12-11T21:00:15.628Z,0.50
2022-12-11T21:02:42.949Z,0.60
2022-12-11T21:05:11.489Z,0.70
2022-12-11T21:07:39.077Z,0.70
2022-12-11T21:10:06.939Z,0.60
2022-12-11T21:12:34.258Z,0.60
2022-12-11T21:15:01.731Z,0.60
2022-12-11T21:17:29.133Z,0.60
2022-12-11T21:19:56.592Z,0.60
2022-12-11T21:22:23.932Z,0.50
2022-12-11T21:24:51.280Z,0.50
2022-12-11T21:27:18.794Z,0.50
2022-12-11T21:29:46.153Z,0.60
2022-12-11T21:32:13.782Z,0.60
2022-12-11T21:34:41.540Z,0.50
2022-12-11T21:37:08.896Z,0.50
2022-12-11T21:39:39.306Z,0.60
2022-12-11T21:42:07.223Z,0.50
2022-12-11T21:47:22.150Z,0.60
2022-12-11T21:49:49.541Z,0.60
2022-12-11T21:52:16.925Z,0.60
2022-12-11T21:54:44.260Z,0.60
2022-12-11T21:57:11.597Z,0.50
2022-12-11T21:59:38.948Z,0.50
2022-12-11T22:02:06.405Z,0.50
2022-12-11T22:04:33.853Z,0.50
2022-12-11T22:07:01.228Z,0.60
2022-12-11T22:09:28.529Z,0.60
2022-12-11T22:11:58.526Z,0.60
2022-12-11T22:14:26.486Z,0.60
2022-12-11T22:16:53.941Z,0.60
2022-12-11T22:19:21.274Z,0.60
2022-12-11T22:21:48.712Z,0.60
2022-12-11T22:24:16.082Z,0.60
2022-12-11T22:26:43.464Z,0.70
2022-12-11T22:29:10.888Z,0.70
2022-12-11T22:31:38.327Z,0.70
2022-12-11T22:34:05.664Z,0.70
2022-12-11T22:36:33.060Z,0.70
2022-12-11T22:39:01.117Z,0.70
2022-12-11T22:41:30.486Z,0.70
2022-12-11T22:43:58.717Z,0.70
2022-12-11T22:46:28.867Z,0.70
2022-12-11T22:48:57.293Z,0.70
2022-12-11T22:51:24.768Z,0.70
2022-12-11T22:53:52.194Z,0.70
2022-12-11T22:56:19.661Z,0.70
2022-12-11T22:58:47.357Z,0.70
2022-12-11T23:01:17.938Z,0.70
2022-12-11T23:03:45.816Z,0.70
2022-12-11T23:06:15.825Z,0.70
2022-12-11T23:08:44.046Z,0.70
2022-12-11T23:11:27.740Z,0.70
2022-12-11T23:13:56.011Z,0.70
2022-12-11T23:16:25.173Z,0.70
2022-12-11T23:18:53.278Z,0.60
2022-12-11T23:21:21.935Z,0.60
2022-12-11T23:23:49.598Z,0.60
2022-12-11T23:26:18.773Z,0.60
2022-12-11T23:28:46.479Z,0.60
2022-12-11T23:31:14.473Z,0.60
2022-12-11T23:33:42.314Z,0.60
2022-12-11T23:36:10.397Z,0.70
2022-12-11T23:38:38.971Z,0.70
2022-12-11T23:41:07.737Z,0.60
2022-12-11T23:43:36.410Z,0.60
2022-12-11T23:46:18.821Z,0.60
2022-12-11T23:48:46.269Z,0.60
2022-12-11T23:51:15.720Z,0.60
2022-12-11T23:53:43.916Z,0.60
2022-12-11T23:56:15.677Z,0.60
2022-12-11T23:58:43.216Z,0.50
